| time (UTC) | temp C | wind direction | speed KPH | gust KPH | rain 1hr cm | rain 24hr cm | rain mn cm | humidity % | barometer mb |
| 20260506143206 | 11 | 328 | 4.8 | 14.5 | 0.00 | 0.84 | 0.18 | 90 | 1006.7 |
| 20260506142706 | 11 | 248 | 4.8 | 14.5 | 0.00 | 0.86 | 0.18 | 90 | 1006.7 |
| 20260506141706 | 11 | 316 | 3.2 | 8.0 | 0.00 | 0.86 | 0.18 | 91 | 1006.9 |
| 20260506141206 | 10 | 337 | 4.8 | 8.0 | 0.00 | 0.86 | 0.18 | 91 | 1006.8 |
| 20260506140706 | 10 | 313 | 4.8 | 8.0 | 0.00 | 0.86 | 0.18 | 91 | 1006.9 |
| 20260506140206 | 10 | 355 | 3.2 | 8.0 | 0.00 | 0.86 | 0.18 | 91 | 1006.9 |
| 20260506135704 | 10 | 307 | 3.2 | 8.0 | 0.00 | 0.86 | 0.18 | 91 | 1006.9 |
| 20260506134704 | 11 | 291 | 4.8 | 12.9 | 0.00 | 0.89 | 0.18 | 91 | 1006.9 |
| 20260506134204 | 11 | 328 | 3.2 | 11.3 | 0.00 | 0.89 | 0.18 | 91 | 1006.9 |
| 20260506133707 | 11 | 252 | 3.2 | 8.0 | 0.00 | 0.89 | 0.18 | 91 | 1006.9 |
| 20260506133205 | 11 | 320 | 3.2 | 8.0 | 0.00 | 0.89 | 0.18 | 91 | 1006.9 |
| 20260506132707 | 11 | 323 | 3.2 | 6.4 | 0.00 | 0.89 | 0.18 | 91 | 1006.9 |
| 20260506132202 | 11 | 327 | 3.2 | 9.7 | 0.00 | 0.89 | 0.18 | 91 | 1006.9 |
| 20260506131202 | 10 | 309 | 4.8 | 12.9 | 0.00 | 0.91 | 0.18 | 91 | 1006.8 |
| 20260506130704 | 11 | 256 | 4.8 | 12.9 | 0.00 | 0.94 | 0.18 | 91 | 1006.7 |
| 20260506130201 | 11 | 304 | 4.8 | 11.3 | 0.00 | 0.97 | 0.18 | 91 | 1006.7 |
| 20260506125703 | 11 | 328 | 4.8 | 14.5 | 0.00 | 0.99 | 0.18 | 91 | 1006.7 |
| 20260506125202 | 11 | 318 | 3.2 | 14.5 | 0.00 | 0.99 | 0.18 | 91 | 1006.6 |
| 20260506124704 | 11 | 314 | 3.2 | 9.7 | 0.00 | 0.99 | 0.18 | 91 | 1006.6 |
| 20260506124202 | 11 | 355 | 4.8 | 11.3 | 0.00 | 0.99 | 0.18 | 91 | 1006.5 |
| 20260506123702 | 11 | 309 | 4.8 | 11.3 | 0.00 | 1.02 | 0.18 | 91 | 1006.5 |
| 20260506123201 | 11 | 318 | 4.8 | 12.9 | 0.00 | 1.02 | 0.18 | 91 | 1006.4 |
| 20260506122702 | 11 | 321 | 6.4 | 14.5 | 0.00 | 1.02 | 0.18 | 90 | 1006.4 |
| 20260506122203 | 11 | 340 | 4.8 | 14.5 | 0.00 | 1.04 | 0.18 | 90 | 1006.3 |
| 20260506121201 | 11 | 273 | 3.2 | 11.3 | 0.00 | 1.09 | 0.18 | 90 | 1006.3 |
| 20260506120702 | 11 | 329 | 4.8 | 11.3 | 0.00 | 1.12 | 0.18 | 90 | 1006.2 |
| 20260506120202 | 11 | 351 | 4.8 | 11.3 | 0.00 | 1.12 | 0.18 | 90 | 1006.2 |
| 20260506115702 | 11 | 315 | 4.8 | 12.9 | 0.00 | 1.12 | 0.18 | 90 | 1006.2 |
| 20260506115202 | 11 | 311 | 3.2 | 12.9 | 0.00 | 1.12 | 0.18 | 90 | 1006.1 |
| 20260506114702 | 11 | 286 | 3.2 | 8.0 | 0.00 | 1.12 | 0.18 | 90 | 1006.1 |
| 20260506113702 | 11 | 323 | 3.2 | 11.3 | 0.00 | 1.12 | 0.18 | 90 | 1006.0 |
| 20260506113202 | 11 | 296 | 4.8 | 12.9 | 0.00 | 1.12 | 0.18 | 90 | 1006.0 |
| 20260506112702 | 11 | 286 | 4.8 | 12.9 | 0.00 | 1.12 | 0.18 | 90 | 1005.9 |
| 20260506111702 | 11 | 308 | 3.2 | 9.7 | 0.00 | 1.12 | 0.18 | 91 | 1005.9 |
| 20260506111201 | 11 | 355 | 3.2 | 9.7 | 0.00 | 1.12 | 0.18 | 91 | 1005.8 |
| 20260506110702 | 11 | 333 | 4.8 | 11.3 | 0.00 | 1.12 | 0.18 | 91 | 1005.8 |
| 20260506105702 | 11 | 342 | 4.8 | 12.9 | 0.00 | 1.12 | 0.18 | 92 | 1005.8 |
| 20260506105202 | 11 | 324 | 3.2 | 11.3 | 0.00 | 1.12 | 0.18 | 92 | 1005.7 |
| 20260506104702 | 11 | 335 | 3.2 | 11.3 | 0.00 | 1.12 | 0.18 | 92 | 1005.7 |
| 20260506104202 | 11 | 296 | 4.8 | 12.9 | 0.00 | 1.12 | 0.18 | 92 | 1005.7 |
| 20260506103702 | 11 | 321 | 4.8 | 12.9 | 0.00 | 1.12 | 0.18 | 92 | 1005.7 |
| 20260506102202 | 11 | 321 | 4.8 | 9.7 | 0.00 | 1.12 | 0.18 | 92 | 1005.6 |
| 20260506101702 | 11 | 324 | 3.2 | 9.7 | 0.00 | 1.12 | 0.18 | 93 | 1005.5 |
| 20260506101202 | 11 | 313 | 3.2 | 9.7 | 0.00 | 1.12 | 0.18 | 93 | 1005.5 |
| 20260506100702 | 11 | 325 | 3.2 | 11.3 | 0.00 | 1.12 | 0.18 | 93 | 1005.5 |
| 20260506100202 | 11 | 314 | 4.8 | 12.9 | 0.00 | 1.12 | 0.18 | 93 | 1005.5 |
| 20260506095702 | 11 | 274 | 4.8 | 12.9 | 0.00 | 1.12 | 0.18 | 93 | 1005.3 |
| 20260506095202 | 11 | 325 | 3.2 | 11.3 | 0.00 | 1.12 | 0.18 | 93 | 1005.3 |
| 20260506094702 | 11 | 306 | 3.2 | 11.3 | 0.00 | 1.12 | 0.18 | 93 | 1005.5 |
| 20260506094202 | 11 | 355 | 3.2 | 9.7 | 0.00 | 1.12 | 0.18 | 93 | 1005.3 |
| 20260506093702 | 11 | 320 | 3.2 | 11.3 | 0.00 | 1.12 | 0.18 | 93 | 1005.2 |
| 20260506093202 | 11 | 325 | 4.8 | 11.3 | 0.00 | 1.12 | 0.18 | 93 | 1005.2 |
| 20260506092702 | 11 | 254 | 3.2 | 11.3 | 0.00 | 1.12 | 0.18 | 93 | 1005.1 |
| 20260506091204 | 11 | 279 | 4.8 | 11.3 | 0.00 | 1.12 | 0.18 | 93 | 1005.1 |
| 20260506090702 | 10 | 279 | 4.8 | 12.9 | 0.00 | 1.12 | 0.18 | 93 | 1005.1 |
| 20260506090204 | 10 | 313 | 3.2 | 12.9 | 0.00 | 1.12 | 0.18 | 93 | 1005.1 |
| 20260506085703 | 11 | 277 | 3.2 | 9.7 | 0.00 | 1.12 | 0.18 | 93 | 1005.0 |
| 20260506085205 | 11 | 238 | 3.2 | 11.3 | 0.00 | 1.12 | 0.18 | 93 | 1004.9 |
| 20260506084701 | 11 | 319 | 4.8 | 11.3 | 0.00 | 1.12 | 0.18 | 93 | 1004.9 |
| 20260506083703 | 11 | 323 | 3.2 | 11.3 | 0.00 | 1.12 | 0.18 | 93 | 1004.7 |
| 20260506083204 | 11 | 38 | 3.2 | 12.9 | 0.00 | 1.12 | 0.18 | 93 | 1004.7 |
| 20260506082700 | 11 | 315 | 3.2 | 12.9 | 0.00 | 1.12 | 0.18 | 93 | 1004.6 |
| 20260506082200 | 11 | 231 | 3.2 | 8.0 | 0.00 | 1.12 | 0.18 | 93 | 1004.7 |
| 20260506081658 | 11 | 296 | 4.8 | 8.0 | 0.03 | 1.12 | 0.18 | 93 | 1004.6 |
| 20260506081157 | 11 | 314 | 3.2 | 8.0 | 0.03 | 1.12 | 0.18 | 93 | 1004.6 |
| 20260506080156 | 11 | 319 | 3.2 | 11.3 | 0.03 | 1.12 | 0.18 | 93 | 1004.6 |
| 20260506072653 | 10 | 307 | 3.2 | 8.0 | 0.05 | 1.12 | 0.18 | 93 | 1004.6 |
| 20260506072153 | 10 | 314 | 3.2 | 8.0 | 0.05 | 1.12 | 0.18 | 93 | 1004.6 |
| 20260506071654 | 10 | 312 | 1.6 | 8.0 | 0.05 | 1.09 | 0.15 | 93 | 1004.6 |
| 20260506071157 | 10 | 311 | 3.2 | 6.4 | 0.05 | 1.09 | 0.15 | 93 | 1004.5 |
| 20260506070654 | 10 | 298 | 3.2 | 6.4 | 0.05 | 1.09 | 0.15 | 94 | 1004.5 |
| 20260506070154 | 10 | 331 | 3.2 | 8.0 | 0.05 | 1.09 | 0.15 | 93 | 1004.5 |
| 20260506062148 | 10 | 306 | 3.2 | 6.4 | 0.10 | 1.07 | 0.13 | 93 | 1004.2 |
| 20260506061648 | 10 | 306 | 3.2 | 9.7 | 0.10 | 1.07 | 0.13 | 93 | 1004.1 |
| 20260506061148 | 10 | 325 | 3.2 | 9.7 | 0.08 | 1.04 | 0.10 | 93 | 1004.1 |
| 20260506060648 | 10 | 323 | 1.6 | 8.0 | 0.10 | 1.04 | 0.10 | 93 | 1004.1 |
| 20260506050140 | 11 | 219 | 0.0 | 0.0 | 0.00 | 0.94 | 0.00 | 93 | 1003.8 |
| 20260506045130 | 11 | 219 | 0.0 | 1.6 | 0.00 | 0.94 | 0.00 | 93 | 1003.8 |
| 20260506044131 | 11 | 219 | 0.0 | 3.2 | 0.00 | 0.94 | 0.00 | 93 | 1003.8 |
| 20260506043631 | 11 | 182 | 0.0 | 0.0 | 0.00 | 0.94 | 0.00 | 93 | 1003.9 |
| 20260506043131 | 11 | 182 | 0.0 | 0.0 | 0.00 | 0.94 | 0.00 | 93 | 1003.8 |
| 20260506042631 | 11 | 182 | 0.0 | 0.0 | 0.00 | 0.94 | 0.00 | 93 | 1003.9 |
| 20260506042131 | 11 | 182 | 0.0 | 1.6 | 0.00 | 0.94 | 0.00 | 93 | 1003.9 |
| 20260506041631 | 11 | 182 | 0.0 | 3.2 | 0.00 | 0.94 | 0.00 | 93 | 1003.9 |
| 20260506040631 | 11 | 182 | 0.0 | 3.2 | 0.00 | 0.94 | 0.00 | 93 | 1004.0 |
| 20260506040131 | 11 | 183 | 1.6 | 3.2 | 0.00 | 0.94 | 0.00 | 93 | 1004.0 |
| 20260506035630 | 11 | 183 | 1.6 | 3.2 | 0.00 | 0.94 | 0.00 | 93 | 1004.0 |
| 20260506035131 | 11 | 183 | 1.6 | 6.4 | 0.00 | 0.94 | 0.00 | 93 | 1004.1 |
| 20260506034633 | 11 | 184 | 1.6 | 6.4 | 0.00 | 0.94 | 0.00 | 93 | 1004.2 |
| 20260506034131 | 11 | 176 | 1.6 | 4.8 | 0.00 | 0.94 | 0.00 | 93 | 1004.2 |
| 20260506033634 | 11 | 178 | 1.6 | 6.4 | 0.00 | 0.94 | 0.00 | 93 | 1004.2 |
| 20260506033131 | 11 | 162 | 1.6 | 6.4 | 0.00 | 0.94 | 0.00 | 93 | 1004.3 |
| 20260506032131 | 11 | 181 | 3.2 | 9.7 | 0.00 | 0.94 | 0.00 | 93 | 1004.2 |
| 20260506031634 | 11 | 194 | 3.2 | 8.0 | 0.00 | 0.94 | 0.00 | 93 | 1004.3 |
| 20260506031131 | 11 | 148 | 3.2 | 8.0 | 0.00 | 0.94 | 0.00 | 93 | 1004.3 |
| 20260506030131 | 11 | 171 | 3.2 | 8.0 | 0.00 | 0.94 | 0.00 | 93 | 1004.3 |
| 20260506025631 | 11 | 163 | 3.2 | 8.0 | 0.00 | 0.94 | 0.00 | 93 | 1004.3 |
| 20260506024632 | 11 | 158 | 3.2 | 11.3 | 0.00 | 0.94 | 0.00 | 93 | 1004.3 |
| 20260506024131 | 11 | 192 | 3.2 | 8.0 | 0.00 | 0.94 | 0.00 | 93 | 1004.3 |
| 20260506023633 | 11 | 171 | 3.2 | 8.0 | 0.00 | 0.94 | 0.00 | 93 | 1004.3 |
| 20260506023131 | 11 | 155 | 1.6 | 6.4 | 0.00 | 0.94 | 0.00 | 93 | 1004.3 |
| 20260506022632 | 11 | 189 | 1.6 | 6.4 | 0.00 | 0.94 | 0.00 | 93 | 1004.3 |
| 20260506022128 | 11 | 184 | 3.2 | 6.4 | 0.00 | 0.94 | 0.00 | 93 | 1004.3 |
| 20260506021117 | 11 | 186 | 3.2 | 9.7 | 0.00 | 0.94 | 0.00 | 93 | 1004.3 |
| 20260506020613 | 11 | 171 | 3.2 | 9.7 | 0.00 | 0.94 | 0.00 | 93 | 1004.3 |
| 20260506020107 | 11 | 179 | 3.2 | 8.0 | 0.00 | 0.94 | 0.00 | 93 | 1004.3 |
| 20260506015608 | 11 | 193 | 3.2 | 8.0 | 0.00 | 0.94 | 0.00 | 93 | 1004.4 |
| 20260506015107 | 11 | 178 | 3.2 | 9.7 | 0.00 | 0.94 | 0.00 | 93 | 1004.4 |
| 20260506014607 | 11 | 202 | 3.2 | 9.7 | 0.00 | 0.94 | 0.00 | 93 | 1004.5 |
| 20260506014107 | 11 | 167 | 4.8 | 12.9 | 0.00 | 0.94 | 0.00 | 93 | 1004.5 |
| 20260506013605 | 11 | 137 | 4.8 | 12.9 | 0.00 | 0.94 | 0.00 | 93 | 1004.6 |
| 20260506013105 | 11 | 192 | 4.8 | 12.9 | 0.00 | 0.94 | 0.00 | 93 | 1004.6 |
| 20260506012605 | 11 | 167 | 4.8 | 12.9 | 0.00 | 0.94 | 0.00 | 93 | 1004.6 |
| 20260506012104 | 11 | 173 | 4.8 | 9.7 | 0.00 | 0.94 | 0.00 | 93 | 1004.6 |
| 20260506011608 | 11 | 196 | 4.8 | 11.3 | 0.00 | 0.94 | 0.00 | 93 | 1004.6 |
| 20260506011105 | 11 | 172 | 4.8 | 11.3 | 0.00 | 0.94 | 0.00 | 93 | 1004.6 |
| 20260506010607 | 11 | 186 | 3.2 | 9.7 | 0.00 | 0.94 | 0.00 | 93 | 1004.7 |
| 20260506010104 | 11 | 167 | 3.2 | 9.7 | 0.00 | 0.94 | 0.00 | 93 | 1004.7 |
| 20260506005607 | 11 | 171 | 3.2 | 9.7 | 0.00 | 0.94 | 0.00 | 93 | 1004.7 |
| 20260506005102 | 11 | 157 | 3.2 | 8.0 | 0.00 | 0.94 | 0.00 | 93 | 1004.8 |
| 20260506004604 | 11 | 196 | 3.2 | 9.7 | 0.00 | 0.94 | 0.00 | 93 | 1004.7 |
| 20260506004102 | 11 | 171 | 3.2 | 9.7 | 0.00 | 0.94 | 0.00 | 93 | 1004.8 |
| 20260506003600 | 11 | 182 | 3.2 | 9.7 | 0.00 | 0.94 | 0.00 | 93 | 1004.9 |
| 20260506003055 | 11 | 175 | 3.2 | 14.5 | 0.00 | 0.94 | 0.00 | 93 | 1004.9 |
| 20260506002548 | 11 | 170 | 3.2 | 14.5 | 0.00 | 0.94 | 0.00 | 93 | 1004.9 |
| 20260506002049 | 11 | 187 | 4.8 | 14.5 | 0.00 | 0.94 | 0.00 | 93 | 1004.8 |
| 20260506001047 | 11 | 242 | 3.2 | 9.7 | 0.00 | 0.94 | 0.00 | 93 | 1005.0 |
| 20260506000047 | 11 | 171 | 4.8 | 11.3 | 0.00 | 0.94 | 0.00 | 93 | 1005.0 |
| 20260505235546 | 11 | 202 | 3.2 | 11.3 | 0.00 | 0.94 | 0.00 | 93 | 1005.1 |
| 20260505235047 | 11 | 163 | 3.2 | 9.7 | 0.00 | 0.94 | 0.00 | 93 | 1005.1 |
| 20260505234548 | 11 | 178 | 3.2 | 8.0 | 0.00 | 0.94 | 0.00 | 93 | 1005.2 |
| 20260505234046 | 11 | 186 | 3.2 | 6.4 | 0.00 | 0.94 | 0.00 | 93 | 1005.2 |
| 20260505233047 | 12 | 183 | 1.6 | 8.0 | 0.00 | 0.94 | 0.00 | 93 | 1005.3 |
| 20260505232547 | 12 | 163 | 1.6 | 8.0 | 0.00 | 0.94 | 0.00 | 93 | 1005.2 |
| 20260505232048 | 12 | 163 | 1.6 | 8.0 | 0.00 | 0.94 | 0.00 | 93 | 1005.3 |
| 20260505231547 | 12 | 153 | 1.6 | 8.0 | 0.00 | 0.94 | 0.00 | 93 | 1005.2 |
| 20260505231047 | 12 | 165 | 1.6 | 6.4 | 0.00 | 0.94 | 0.00 | 93 | 1005.3 |
| 20260505230546 | 12 | 168 | 1.6 | 6.4 | 0.00 | 0.94 | 0.00 | 93 | 1005.3 |
| 20260505230046 | 12 | 131 | 0.0 | 4.8 | 0.00 | 0.94 | 0.00 | 93 | 1005.3 |
| 20260505225045 | 12 | 100 | 0.0 | 3.2 | 0.00 | 0.94 | 0.00 | 93 | 1005.5 |
| 20260505224544 | 11 | 100 | 0.0 | 3.2 | 0.00 | 0.94 | 0.00 | 93 | 1005.5 |
| 20260505224045 | 11 | 100 | 0.0 | 4.8 | 0.00 | 0.94 | 0.00 | 93 | 1005.5 |
| 20260505223544 | 11 | 100 | 1.6 | 4.8 | 0.00 | 0.94 | 0.00 | 93 | 1005.5 |
| 20260505223038 | 11 | 88 | 1.6 | 4.8 | 0.00 | 0.94 | 0.00 | 93 | 1005.5 |
| 20260505221539 | 11 | 104 | 1.6 | 4.8 | 0.00 | 0.94 | 0.00 | 93 | 1005.6 |
| 20260505221038 | 11 | 125 | 0.0 | 3.2 | 0.00 | 0.94 | 0.00 | 93 | 1005.6 |
| 20260505220038 | 12 | 126 | 0.0 | 1.6 | 0.00 | 0.94 | 0.00 | 93 | 1005.8 |
| 20260505215535 | 12 | 126 | 0.0 | 1.6 | 0.00 | 0.94 | 0.94 | 93 | 1005.8 |
| 20260505215036 | 12 | 125 | 0.0 | 3.2 | 0.00 | 0.94 | 0.94 | 93 | 1005.8 |
| 20260505214536 | 12 | 125 | 1.6 | 3.2 | 0.08 | 0.94 | 0.94 | 93 | 1005.8 |
| 20260505214036 | 12 | 124 | 0.0 | 3.2 | 0.08 | 0.94 | 0.94 | 93 | 1005.9 |
| 20260505213536 | 12 | 123 | 1.6 | 3.2 | 0.08 | 0.94 | 0.94 | 93 | 1005.9 |
| 20260505213036 | 12 | 116 | 1.6 | 3.2 | 0.08 | 0.94 | 0.94 | 93 | 1005.9 |
| 20260505212536 | 12 | 116 | 1.6 | 4.8 | 0.08 | 0.94 | 0.94 | 93 | 1005.9 |
| 20260505212036 | 12 | 116 | 1.6 | 4.8 | 0.10 | 0.94 | 0.94 | 93 | 1005.8 |
| 20260505211033 | 12 | 117 | 1.6 | 3.2 | 0.15 | 0.94 | 0.94 | 93 | 1005.9 |
| 20260505210534 | 12 | 118 | 0.0 | 3.2 | 0.20 | 0.94 | 0.94 | 93 | 1006.0 |
| 20260505210034 | 12 | 118 | 0.0 | 3.2 | 0.23 | 0.94 | 0.94 | 93 | 1006.0 |
| 20260505205032 | 12 | 118 | 0.0 | 3.2 | 0.33 | 0.94 | 0.94 | 93 | 1006.0 |
| 20260505204533 | -17 | 0.0 | 0.0 | 0.28 | 0.86 | 0.86 | 1006.0 | ||
| 20260505204032 | 12 | 0.0 | 0.0 | 0.33 | 0.86 | 0.86 | 93 | 1006.0 | |
| 20260505203533 | 12 | 122 | 0.0 | 1.6 | 0.33 | 0.86 | 0.86 | 93 | 1006.0 |
| 20260505203024 | 12 | 122 | 0.0 | 1.6 | 0.33 | 0.86 | 0.86 | 93 | 1006.0 |
| 20260505202003 | 12 | 122 | 0.0 | 1.6 | 0.33 | 0.84 | 0.84 | 93 | 1006.0 |
| 20260505201502 | 12 | 122 | 0.0 | 1.6 | 0.33 | 0.81 | 0.79 | 93 | 1006.0 |
| 20260505200956 | 12 | 122 | 0.0 | 1.6 | 0.28 | 0.79 | 0.76 | 93 | 1006.0 |
| 20260505200453 | 12 | 122 | 0.0 | 1.6 | 0.25 | 0.74 | 0.71 | 93 | 1006.0 |
| 20260505195953 | 12 | 122 | 0.0 | 1.6 | 0.23 | 0.71 | 0.69 | 93 | 1006.0 |
| 20260505195453 | 12 | 122 | 0.0 | 1.6 | 0.18 | 0.64 | 0.64 | 93 | 1006.0 |
| 20260505194953 | 12 | 122 | 0.0 | 1.6 | 0.15 | 0.61 | 0.61 | 92 | 1006.0 |
| 20260505194451 | 12 | 122 | 0.0 | 1.6 | 0.13 | 0.58 | 0.56 | 92 | 1006.0 |
| 20260505193952 | 12 | 122 | 0.0 | 1.6 | 0.08 | 0.53 | 0.53 | 92 | 1005.9 |
| 20260505193451 | 12 | 122 | 0.0 | 1.6 | 0.08 | 0.51 | 0.51 | 93 | 1005.9 |
| 20260505192952 | 12 | 122 | 0.0 | 1.6 | 0.08 | 0.51 | 0.51 | 93 | 1006.0 |
| 20260505192451 | 12 | 122 | 0.0 | 1.6 | 0.08 | 0.51 | 0.51 | 93 | 1005.9 |
| 20260505191949 | 12 | 122 | 0.0 | 1.6 | 0.08 | 0.51 | 0.51 | 92 | 1005.9 |
| 20260505191447 | 12 | 122 | 0.0 | 1.6 | 0.08 | 0.51 | 0.51 | 92 | 1005.8 |
| 20260505190947 | 12 | 122 | 0.0 | 3.2 | 0.08 | 0.51 | 0.51 | 92 | 1005.8 |
| 20260505190407 | 12 | 122 | 0.0 | 3.2 | 0.08 | 0.48 | 0.48 | 92 | 1005.8 |
| 20260505185913 | 12 | 122 | 0.0 | 3.2 | 0.08 | 0.48 | 0.48 | 92 | 1005.7 |
| 20260505185406 | 12 | 123 | 0.0 | 3.2 | 0.05 | 0.46 | 0.46 | 92 | 1005.7 |
| 20260505184905 | 12 | 123 | 1.6 | 3.2 | 0.08 | 0.46 | 0.46 | 92 | 1005.7 |
| 20260505183903 | 12 | 123 | 0.0 | 1.6 | 0.08 | 0.46 | 0.46 | 92 | 1005.8 |
| 20260505183404 | 12 | 123 | 0.0 | 3.2 | 0.05 | 0.43 | 0.43 | 92 | 1005.8 |
| 20260505182904 | 12 | 123 | 1.6 | 3.2 | 0.05 | 0.43 | 0.43 | 92 | 1005.8 |
| 20260505182405 | 12 | 123 | 1.6 | 3.2 | 0.05 | 0.43 | 0.43 | 92 | 1005.8 |
| 20260505181903 | 12 | 123 | 1.6 | 3.2 | 0.05 | 0.43 | 0.43 | 92 | 1005.8 |
| 20260505181413 | 12 | 123 | 1.6 | 3.2 | 0.05 | 0.43 | 0.43 | 92 | 1005.9 |
| 20260505180904 | 12 | 123 | 0.0 | 1.6 | 0.05 | 0.43 | 0.43 | 92 | 1005.9 |
| 20260505180404 | 12 | 123 | 0.0 | 1.6 | 0.03 | 0.41 | 0.41 | 92 | 1005.9 |
| 20260505175417 | 12 | 123 | 0.0 | 1.6 | 0.03 | 0.41 | 0.41 | 91 | 1005.9 |
| 20260505174904 | 12 | 123 | 0.0 | 1.6 | 0.00 | 0.38 | 0.38 | 91 | 1006.0 |
| 20260505174404 | 12 | 123 | 0.0 | 1.6 | 0.00 | 0.41 | 0.38 | 91 | 1006.0 |
| 20260505172903 | 12 | 123 | 0.0 | 1.6 | 0.00 | 0.41 | 0.38 | 91 | 1006.0 |
| 20260505171905 | 13 | 123 | 0.0 | 1.6 | 0.00 | 0.41 | 0.38 | 91 | 1006.1 |
| 20260505171404 | 13 | 123 | 0.0 | 1.6 | 0.00 | 0.41 | 0.38 | 91 | 1006.1 |
| 20260505170904 | 13 | 123 | 0.0 | 1.6 | 0.03 | 0.41 | 0.38 | 91 | 1006.1 |
| 20260505170403 | 13 | 123 | 0.0 | 1.6 | 0.03 | 0.41 | 0.38 | 91 | 1006.1 |
| 20260505165905 | 13 | 123 | 0.0 | 1.6 | 0.03 | 0.41 | 0.38 | 91 | 1006.0 |
| 20260505164905 | 13 | 123 | 0.0 | 3.2 | 0.03 | 0.41 | 0.38 | 91 | 1006.1 |
| 20260505164402 | 12 | 123 | 0.0 | 3.2 | 0.03 | 0.41 | 0.38 | 91 | 1006.1 |
| 20260505163905 | 12 | 123 | 0.0 | 3.2 | 0.05 | 0.41 | 0.38 | 91 | 1006.1 |
| 20260505163402 | 12 | 123 | 1.6 | 3.2 | 0.05 | 0.41 | 0.38 | 91 | 1006.1 |
| 20260505161902 | 13 | 121 | 0.0 | 3.2 | 0.05 | 0.43 | 0.38 | 92 | 1006.2 |
| 20260505161402 | 13 | 90 | 0.0 | 1.6 | 0.08 | 0.43 | 0.38 | 92 | 1006.2 |
| 20260505160903 | 13 | 90 | 0.0 | 3.2 | 0.05 | 0.41 | 0.36 | 92 | 1006.2 |
| 20260505160402 | 13 | 90 | 1.6 | 3.2 | 0.05 | 0.41 | 0.36 | 92 | 1006.2 |
| 20260505152901 | 13 | 181 | 1.6 | 3.2 | 0.05 | 0.36 | 0.33 | 91 | 1006.4 |
| 20260505152402 | 13 | 181 | 1.6 | 3.2 | 0.05 | 0.36 | 0.33 | 91 | 1006.5 |
| 20260505151902 | 13 | 181 | 1.6 | 3.2 | 0.05 | 0.36 | 0.33 | 91 | 1006.5 |
| 20260505150902 | 13 | 180 | 1.6 | 3.2 | 0.05 | 0.33 | 0.30 | 91 | 1006.5 |